sensor_id;sensor_type;location;lat;lon;timestamp;temperature;humidity
42755;DHT22;28407;51.830;5.684;2022-11-21T00:01:27;5.30;88.00
42755;DHT22;28407;51.830;5.684;2022-11-21T00:03:28;5.30;88.00
42755;DHT22;28407;51.830;5.684;2022-11-21T00:05:30;5.30;88.00
42755;DHT22;28407;51.830;5.684;2022-11-21T00:07:30;5.30;88.00
42755;DHT22;28407;51.830;5.684;2022-11-21T00:09:31;5.30;88.00
42755;DHT22;28407;51.830;5.684;2022-11-21T00:11:33;5.20;87.90
42755;DHT22;28407;51.830;5.684;2022-11-21T00:13:33;5.20;87.90
42755;DHT22;28407;51.830;5.684;2022-11-21T00:15:34;5.20;87.90
42755;DHT22;28407;51.830;5.684;2022-11-21T00:17:35;5.20;87.90
42755;DHT22;28407;51.830;5.684;2022-11-21T00:19:35;5.20;87.90
42755;DHT22;28407;51.830;5.684;2022-11-21T00:21:36;5.20;87.90
42755;DHT22;28407;51.830;5.684;2022-11-21T00:23:36;5.20;87.90
42755;DHT22;28407;51.830;5.684;2022-11-21T00:25:38;5.30;88.00
42755;DHT22;28407;51.830;5.684;2022-11-21T00:27:39;5.20;87.90
42755;DHT22;28407;51.830;5.684;2022-11-21T00:29:39;5.30;88.00
42755;DHT22;28407;51.830;5.684;2022-11-21T00:31:40;5.20;88.00
42755;DHT22;28407;51.830;5.684;2022-11-21T00:33:40;5.20;88.00
42755;DHT22;28407;51.830;5.684;2022-11-21T00:35:41;5.20;88.00
42755;DHT22;28407;51.830;5.684;2022-11-21T00:37:41;5.20;88.00
42755;DHT22;28407;51.830;5.684;2022-11-21T00:39:42;5.20;88.00
42755;DHT22;28407;51.830;5.684;2022-11-21T00:41:43;5.20;88.00
42755;DHT22;28407;51.830;5.684;2022-11-21T00:43:44;5.20;88.00
42755;DHT22;28407;51.830;5.684;2022-11-21T00:45:45;5.20;88.00
42755;DHT22;28407;51.830;5.684;2022-11-21T00:47:45;5.30;88.00
42755;DHT22;28407;51.830;5.684;2022-11-21T00:49:46;5.20;88.00
42755;DHT22;28407;51.830;5.684;2022-11-21T00:51:46;5.30;88.00
42755;DHT22;28407;51.830;5.684;2022-11-21T00:53:47;5.20;88.00
42755;DHT22;28407;51.830;5.684;2022-11-21T00:55:47;5.30;88.00
42755;DHT22;28407;51.830;5.684;2022-11-21T00:57:48;5.30;88.00
42755;DHT22;28407;51.830;5.684;2022-11-21T00:59:48;5.30;88.10
42755;DHT22;28407;51.830;5.684;2022-11-21T01:01:49;5.30;88.00
42755;DHT22;28407;51.830;5.684;2022-11-21T01:03:50;5.30;88.00
42755;DHT22;28407;51.830;5.684;2022-11-21T01:05:50;5.30;88.00
42755;DHT22;28407;51.830;5.684;2022-11-21T01:07:51;5.30;88.00
42755;DHT22;28407;51.830;5.684;2022-11-21T01:09:51;5.30;88.10
42755;DHT22;28407;51.830;5.684;2022-11-21T01:11:52;5.30;88.10
42755;DHT22;28407;51.830;5.684;2022-11-21T01:13:52;5.30;88.10
42755;DHT22;28407;51.830;5.684;2022-11-21T01:15:54;5.30;88.10
42755;DHT22;28407;51.830;5.684;2022-11-21T01:17:54;5.20;88.00
42755;DHT22;28407;51.830;5.684;2022-11-21T01:19:55;5.30;88.10
42755;DHT22;28407;51.830;5.684;2022-11-21T01:21:55;5.30;88.10
42755;DHT22;28407;51.830;5.684;2022-11-21T01:23:59;5.20;88.00
42755;DHT22;28407;51.830;5.684;2022-11-21T01:26:01;5.30;88.10
42755;DHT22;28407;51.830;5.684;2022-11-21T01:28:02;5.20;88.10
42755;DHT22;28407;51.830;5.684;2022-11-21T01:30:03;5.30;88.10
42755;DHT22;28407;51.830;5.684;2022-11-21T01:32:04;5.30;88.10
42755;DHT22;28407;51.830;5.684;2022-11-21T01:34:04;5.20;88.10
42755;DHT22;28407;51.830;5.684;2022-11-21T01:38:10;5.20;88.10
42755;DHT22;28407;51.830;5.684;2022-11-21T01:40:11;5.20;88.10
42755;DHT22;28407;51.830;5.684;2022-11-21T01:42:12;5.20;88.10
42755;DHT22;28407;51.830;5.684;2022-11-21T01:44:23;5.20;88.20
42755;DHT22;28407;51.830;5.684;2022-11-21T01:46:24;5.20;88.20
42755;DHT22;28407;51.830;5.684;2022-11-21T01:48:42;5.20;88.10
42755;DHT22;28407;51.830;5.684;2022-11-21T01:50:45;5.20;88.20
42755;DHT22;28407;51.830;5.684;2022-11-21T01:52:45;5.20;88.10
42755;DHT22;28407;51.830;5.684;2022-11-21T01:54:59;5.20;88.20
42755;DHT22;28407;51.830;5.684;2022-11-21T01:57:07;5.20;88.20
42755;DHT22;28407;51.830;5.684;2022-11-21T01:59:19;5.20;88.20
42755;DHT22;28407;51.830;5.684;2022-11-21T02:01:22;5.20;88.20
42755;DHT22;28407;51.830;5.684;2022-11-21T02:03:25;5.30;88.30
42755;DHT22;28407;51.830;5.684;2022-11-21T02:05:30;5.20;88.20
42755;DHT22;28407;51.830;5.684;2022-11-21T02:07:34;5.20;88.20
42755;DHT22;28407;51.830;5.684;2022-11-21T02:09:40;5.20;88.20
42755;DHT22;28407;51.830;5.684;2022-11-21T02:11:51;5.20;88.20
42755;DHT22;28407;51.830;5.684;2022-11-21T02:13:54;5.30;88.30
42755;DHT22;28407;51.830;5.684;2022-11-21T02:15:55;5.20;88.20
42755;DHT22;28407;51.830;5.684;2022-11-21T02:17:55;5.20;88.20
42755;DHT22;28407;51.830;5.684;2022-11-21T02:19:58;5.20;88.20
42755;DHT22;28407;51.830;5.684;2022-11-21T02:22:43;5.20;88.20
42755;DHT22;28407;51.830;5.684;2022-11-21T02:25:13;5.20;88.30
42755;DHT22;28407;51.830;5.684;2022-11-21T02:27:15;5.20;88.30
42755;DHT22;28407;51.830;5.684;2022-11-21T02:29:16;5.20;88.30
42755;DHT22;28407;51.830;5.684;2022-11-21T02:31:17;5.20;88.30
42755;DHT22;28407;51.830;5.684;2022-11-21T02:33:17;5.20;88.60
42755;DHT22;28407;51.830;5.684;2022-11-21T02:35:18;5.20;88.30
42755;DHT22;28407;51.830;5.684;2022-11-21T02:37:19;5.20;88.30
42755;DHT22;28407;51.830;5.684;2022-11-21T02:39:31;5.20;88.30
42755;DHT22;28407;51.830;5.684;2022-11-21T02:41:34;5.20;88.30
42755;DHT22;28407;51.830;5.684;2022-11-21T02:43:46;5.20;88.30
42755;DHT22;28407;51.830;5.684;2022-11-21T02:45:47;5.20;88.30
42755;DHT22;28407;51.830;5.684;2022-11-21T02:47:48;5.20;88.30
42755;DHT22;28407;51.830;5.684;2022-11-21T02:50:09;5.20;88.30
42755;DHT22;28407;51.830;5.684;2022-11-21T02:52:11;5.20;88.30
42755;DHT22;28407;51.830;5.684;2022-11-21T02:54:12;5.20;88.30
42755;DHT22;28407;51.830;5.684;2022-11-21T02:56:13;5.20;88.30
42755;DHT22;28407;51.830;5.684;2022-11-21T02:58:13;5.20;88.30
42755;DHT22;28407;51.830;5.684;2022-11-21T03:00:14;5.20;88.30
42755;DHT22;28407;51.830;5.684;2022-11-21T03:02:15;5.20;88.30
42755;DHT22;28407;51.830;5.684;2022-11-21T03:04:16;5.20;88.30
42755;DHT22;28407;51.830;5.684;2022-11-21T03:06:16;5.20;88.30
42755;DHT22;28407;51.830;5.684;2022-11-21T03:08:17;5.20;88.30
42755;DHT22;28407;51.830;5.684;2022-11-21T03:10:18;5.20;88.30
42755;DHT22;28407;51.830;5.684;2022-11-21T03:12:18;5.20;88.30
42755;DHT22;28407;51.830;5.684;2022-11-21T03:14:19;5.20;88.30
42755;DHT22;28407;51.830;5.684;2022-11-21T03:16:19;5.20;88.30
42755;DHT22;28407;51.830;5.684;2022-11-21T03:18:20;5.20;88.30
42755;DHT22;28407;51.830;5.684;2022-11-21T03:20:21;5.20;88.30
42755;DHT22;28407;51.830;5.684;2022-11-21T03:22:21;5.20;88.30
42755;DHT22;28407;51.830;5.684;2022-11-21T03:24:22;5.20;88.30
42755;DHT22;28407;51.830;5.684;2022-11-21T03:26:22;5.20;88.30
42755;DHT22;28407;51.830;5.684;2022-11-21T03:28:23;5.20;88.30
42755;DHT22;28407;51.830;5.684;2022-11-21T03:30:24;5.10;88.20
42755;DHT22;28407;51.830;5.684;2022-11-21T03:32:25;5.10;88.30
42755;DHT22;28407;51.830;5.684;2022-11-21T03:34:26;5.10;88.20
42755;DHT22;28407;51.830;5.684;2022-11-21T03:36:27;5.10;88.20
42755;DHT22;28407;51.830;5.684;2022-11-21T03:38:27;5.10;88.20
42755;DHT22;28407;51.830;5.684;2022-11-21T03:40:28;5.10;88.20
42755;DHT22;28407;51.830;5.684;2022-11-21T03:42:28;5.10;88.20
42755;DHT22;28407;51.830;5.684;2022-11-21T03:44:29;5.10;88.30
42755;DHT22;28407;51.830;5.684;2022-11-21T03:46:32;5.10;88.30
42755;DHT22;28407;51.830;5.684;2022-11-21T03:48:33;5.20;88.30
42755;DHT22;28407;51.830;5.684;2022-11-21T03:50:35;5.20;88.30
42755;DHT22;28407;51.830;5.684;2022-11-21T03:52:35;5.10;88.20
42755;DHT22;28407;51.830;5.684;2022-11-21T03:54:36;5.10;88.30
42755;DHT22;28407;51.830;5.684;2022-11-21T03:56:37;5.20;88.30
42755;DHT22;28407;51.830;5.684;2022-11-21T03:58:41;5.20;88.30
42755;DHT22;28407;51.830;5.684;2022-11-21T04:00:42;5.10;88.90
42755;DHT22;28407;51.830;5.684;2022-11-21T04:02:42;5.10;88.20
42755;DHT22;28407;51.830;5.684;2022-11-21T04:04:43;5.10;88.30
42755;DHT22;28407;51.830;5.684;2022-11-21T04:06:43;5.10;88.30
42755;DHT22;28407;51.830;5.684;2022-11-21T04:08:44;5.10;88.30
42755;DHT22;28407;51.830;5.684;2022-11-21T04:10:52;5.10;89.00
42755;DHT22;28407;51.830;5.684;2022-11-21T04:12:53;5.10;88.40
42755;DHT22;28407;51.830;5.684;2022-11-21T04:14:54;5.10;88.40
42755;DHT22;28407;51.830;5.684;2022-11-21T04:16:54;5.10;88.50
42755;DHT22;28407;51.830;5.684;2022-11-21T04:18:55;5.10;88.50
42755;DHT22;28407;51.830;5.684;2022-11-21T04:21:00;5.10;88.50
42755;DHT22;28407;51.830;5.684;2022-11-21T04:23:01;5.10;88.50
42755;DHT22;28407;51.830;5.684;2022-11-21T04:25:01;5.10;88.50
42755;DHT22;28407;51.830;5.684;2022-11-21T04:27:02;5.10;88.40
42755;DHT22;28407;51.830;5.684;2022-11-21T04:29:02;5.10;88.40
42755;DHT22;28407;51.830;5.684;2022-11-21T04:31:04;5.10;88.40
42755;DHT22;28407;51.830;5.684;2022-11-21T04:33:05;5.10;88.50
42755;DHT22;28407;51.830;5.684;2022-11-21T04:35:07;5.10;88.40
42755;DHT22;28407;51.830;5.684;2022-11-21T04:37:07;5.10;88.40
42755;DHT22;28407;51.830;5.684;2022-11-21T04:39:08;5.10;88.50
42755;DHT22;28407;51.830;5.684;2022-11-21T04:41:08;5.10;88.50
42755;DHT22;28407;51.830;5.684;2022-11-21T04:43:09;5.10;88.50
42755;DHT22;28407;51.830;5.684;2022-11-21T04:45:11;5.10;88.50
42755;DHT22;28407;51.830;5.684;2022-11-21T04:47:12;5.10;88.50
42755;DHT22;28407;51.830;5.684;2022-11-21T04:49:12;5.10;88.50
42755;DHT22;28407;51.830;5.684;2022-11-21T04:51:13;5.10;88.50
42755;DHT22;28407;51.830;5.684;2022-11-21T04:53:13;5.10;88.60
42755;DHT22;28407;51.830;5.684;2022-11-21T04:55:14;5.10;88.60
42755;DHT22;28407;51.830;5.684;2022-11-21T04:57:15;5.10;88.60
42755;DHT22;28407;51.830;5.684;2022-11-21T04:59:15;5.10;88.60
42755;DHT22;28407;51.830;5.684;2022-11-21T05:01:16;5.10;88.70
42755;DHT22;28407;51.830;5.684;2022-11-21T05:03:16;5.10;88.70
42755;DHT22;28407;51.830;5.684;2022-11-21T05:05:17;5.10;88.80
42755;DHT22;28407;51.830;5.684;2022-11-21T05:07:17;5.10;88.70
42755;DHT22;28407;51.830;5.684;2022-11-21T05:09:18;5.00;88.70
42755;DHT22;28407;51.830;5.684;2022-11-21T05:11:19;5.00;88.70
42755;DHT22;28407;51.830;5.684;2022-11-21T05:13:38;5.00;88.70
42755;DHT22;28407;51.830;5.684;2022-11-21T05:15:38;5.00;88.80
42755;DHT22;28407;51.830;5.684;2022-11-21T05:17:39;5.00;88.80
42755;DHT22;28407;51.830;5.684;2022-11-21T05:19:40;5.00;88.90
42755;DHT22;28407;51.830;5.684;2022-11-21T05:21:40;5.00;88.90
42755;DHT22;28407;51.830;5.684;2022-11-21T05:23:41;5.00;88.90
42755;DHT22;28407;51.830;5.684;2022-11-21T05:25:41;5.00;88.90
42755;DHT22;28407;51.830;5.684;2022-11-21T05:27:42;5.00;89.00
42755;DHT22;28407;51.830;5.684;2022-11-21T05:29:43;5.00;89.00
42755;DHT22;28407;51.830;5.684;2022-11-21T05:31:43;5.00;89.10
42755;DHT22;28407;51.830;5.684;2022-11-21T05:33:44;5.00;89.10
42755;DHT22;28407;51.830;5.684;2022-11-21T05:35:44;5.00;89.10
42755;DHT22;28407;51.830;5.684;2022-11-21T05:37:45;5.00;89.10
42755;DHT22;28407;51.830;5.684;2022-11-21T05:39:46;5.00;89.70
42755;DHT22;28407;51.830;5.684;2022-11-21T05:41:46;5.10;89.30
42755;DHT22;28407;51.830;5.684;2022-11-21T05:43:47;5.10;89.20
42755;DHT22;28407;51.830;5.684;2022-11-21T05:45:51;5.10;89.10
42755;DHT22;28407;51.830;5.684;2022-11-21T05:47:52;5.10;89.10
42755;DHT22;28407;51.830;5.684;2022-11-21T05:49:52;5.10;89.10
42755;DHT22;28407;51.830;5.684;2022-11-21T05:51:53;5.10;89.10
42755;DHT22;28407;51.830;5.684;2022-11-21T05:53:53;5.20;89.10
42755;DHT22;28407;51.830;5.684;2022-11-21T05:55:54;5.20;89.10
42755;DHT22;28407;51.830;5.684;2022-11-21T05:57:57;5.20;89.10
42755;DHT22;28407;51.830;5.684;2022-11-21T05:59:59;5.20;89.10
42755;DHT22;28407;51.830;5.684;2022-11-21T06:01:59;5.20;89.00
42755;DHT22;28407;51.830;5.684;2022-11-21T06:04:18;5.30;89.10
42755;DHT22;28407;51.830;5.684;2022-11-21T06:06:19;5.20;89.00
42755;DHT22;28407;51.830;5.684;2022-11-21T06:08:20;5.20;89.00
42755;DHT22;28407;51.830;5.684;2022-11-21T06:10:20;5.20;89.00
42755;DHT22;28407;51.830;5.684;2022-11-21T06:12:21;5.20;89.10
42755;DHT22;28407;51.830;5.684;2022-11-21T06:14:21;5.20;89.10
42755;DHT22;28407;51.830;5.684;2022-11-21T06:16:22;5.20;89.10
42755;DHT22;28407;51.830;5.684;2022-11-21T06:18:23;5.30;89.20
42755;DHT22;28407;51.830;5.684;2022-11-21T06:20:23;5.20;89.20
42755;DHT22;28407;51.830;5.684;2022-11-21T06:22:24;5.20;89.20
42755;DHT22;28407;51.830;5.684;2022-11-21T06:24:24;5.20;89.20
42755;DHT22;28407;51.830;5.684;2022-11-21T06:26:26;5.20;89.20
42755;DHT22;28407;51.830;5.684;2022-11-21T06:28:31;5.30;89.30
42755;DHT22;28407;51.830;5.684;2022-11-21T06:30:33;5.30;89.30
42755;DHT22;28407;51.830;5.684;2022-11-21T06:32:36;5.30;89.10
42755;DHT22;28407;51.830;5.684;2022-11-21T06:34:37;5.20;89.10
42755;DHT22;28407;51.830;5.684;2022-11-21T06:36:38;5.20;89.20
42755;DHT22;28407;51.830;5.684;2022-11-21T06:38:39;5.20;89.20
42755;DHT22;28407;51.830;5.684;2022-11-21T06:40:40;5.20;89.20
42755;DHT22;28407;51.830;5.684;2022-11-21T06:42:40;5.30;89.30
42755;DHT22;28407;51.830;5.684;2022-11-21T06:44:41;5.30;89.30
42755;DHT22;28407;51.830;5.684;2022-11-21T06:46:41;5.30;89.30
42755;DHT22;28407;51.830;5.684;2022-11-21T06:48:42;5.30;89.30
42755;DHT22;28407;51.830;5.684;2022-11-21T06:50:43;5.30;89.30
42755;DHT22;28407;51.830;5.684;2022-11-21T06:52:43;5.30;89.30
42755;DHT22;28407;51.830;5.684;2022-11-21T06:54:44;5.30;89.40
42755;DHT22;28407;51.830;5.684;2022-11-21T06:56:44;5.20;89.40
42755;DHT22;28407;51.830;5.684;2022-11-21T06:58:45;5.30;89.40
42755;DHT22;28407;51.830;5.684;2022-11-21T07:00:46;5.30;89.40
42755;DHT22;28407;51.830;5.684;2022-11-21T07:02:48;5.30;89.50
42755;DHT22;28407;51.830;5.684;2022-11-21T07:04:48;5.20;89.40
42755;DHT22;28407;51.830;5.684;2022-11-21T07:06:49;5.20;89.40
42755;DHT22;28407;51.830;5.684;2022-11-21T07:08:53;5.20;89.50
42755;DHT22;28407;51.830;5.684;2022-11-21T07:10:54;5.20;90.00
42755;DHT22;28407;51.830;5.684;2022-11-21T07:12:58;5.20;89.50
42755;DHT22;28407;51.830;5.684;2022-11-21T07:15:17;5.20;89.60
42755;DHT22;28407;51.830;5.684;2022-11-21T07:17:18;5.20;89.50
42755;DHT22;28407;51.830;5.684;2022-11-21T07:19:18;5.20;89.60
42755;DHT22;28407;51.830;5.684;2022-11-21T07:21:19;5.20;89.60
42755;DHT22;28407;51.830;5.684;2022-11-21T07:23:20;5.20;89.70
42755;DHT22;28407;51.830;5.684;2022-11-21T07:25:21;5.20;90.10
42755;DHT22;28407;51.830;5.684;2022-11-21T07:27:22;5.20;89.60
42755;DHT22;28407;51.830;5.684;2022-11-21T07:29:22;5.20;89.70
42755;DHT22;28407;51.830;5.684;2022-11-21T07:31:23;5.30;89.80
42755;DHT22;28407;51.830;5.684;2022-11-21T07:33:24;5.30;89.70
42755;DHT22;28407;51.830;5.684;2022-11-21T07:35:25;5.40;89.70
42755;DHT22;28407;51.830;5.684;2022-11-21T07:37:25;5.40;89.60
42755;DHT22;28407;51.830;5.684;2022-11-21T07:39:26;5.40;89.60
42755;DHT22;28407;51.830;5.684;2022-11-21T07:41:27;5.40;89.50
42755;DHT22;28407;51.830;5.684;2022-11-21T07:43:28;5.40;89.50
42755;DHT22;28407;51.830;5.684;2022-11-21T07:45:28;5.40;89.50
42755;DHT22;28407;51.830;5.684;2022-11-21T07:47:29;5.40;89.60
42755;DHT22;28407;51.830;5.684;2022-11-21T07:49:30;5.40;89.60
42755;DHT22;28407;51.830;5.684;2022-11-21T07:51:30;5.50;89.70
42755;DHT22;28407;51.830;5.684;2022-11-21T07:53:31;5.50;89.70
42755;DHT22;28407;51.830;5.684;2022-11-21T07:55:32;5.50;89.60
42755;DHT22;28407;51.830;5.684;2022-11-21T07:57:33;5.60;89.60
42755;DHT22;28407;51.830;5.684;2022-11-21T07:59:33;5.60;89.50
42755;DHT22;28407;51.830;5.684;2022-11-21T08:01:34;5.60;89.50
42755;DHT22;28407;51.830;5.684;2022-11-21T08:03:35;5.70;89.50
42755;DHT22;28407;51.830;5.684;2022-11-21T08:05:36;5.70;89.50
42755;DHT22;28407;51.830;5.684;2022-11-21T08:07:37;5.70;89.50
42755;DHT22;28407;51.830;5.684;2022-11-21T08:09:38;5.70;89.40
42755;DHT22;28407;51.830;5.684;2022-11-21T08:11:38;5.70;89.30
42755;DHT22;28407;51.830;5.684;2022-11-21T08:13:39;5.70;89.30
42755;DHT22;28407;51.830;5.684;2022-11-21T08:15:40;5.70;89.40
42755;DHT22;28407;51.830;5.684;2022-11-21T08:17:41;5.80;89.50
42755;DHT22;28407;51.830;5.684;2022-11-21T08:19:41;5.80;89.50
42755;DHT22;28407;51.830;5.684;2022-11-21T08:21:42;5.80;89.40
42755;DHT22;28407;51.830;5.684;2022-11-21T08:23:42;5.80;89.50
42755;DHT22;28407;51.830;5.684;2022-11-21T08:25:43;5.90;89.50
42755;DHT22;28407;51.830;5.684;2022-11-21T08:27:44;5.90;89.40
42755;DHT22;28407;51.830;5.684;2022-11-21T08:29:45;5.90;89.40
42755;DHT22;28407;51.830;5.684;2022-11-21T08:31:46;5.90;89.40
42755;DHT22;28407;51.830;5.684;2022-11-21T08:33:47;5.90;89.40
42755;DHT22;28407;51.830;5.684;2022-11-21T08:35:47;6.00;89.30
42755;DHT22;28407;51.830;5.684;2022-11-21T08:37:48;6.00;89.30
42755;DHT22;28407;51.830;5.684;2022-11-21T08:39:48;6.00;89.30
42755;DHT22;28407;51.830;5.684;2022-11-21T08:41:49;6.00;89.30
42755;DHT22;28407;51.830;5.684;2022-11-21T08:44:05;6.00;89.40
42755;DHT22;28407;51.830;5.684;2022-11-21T08:46:06;6.00;89.50
42755;DHT22;28407;51.830;5.684;2022-11-21T08:48:10;6.00;89.60
42755;DHT22;28407;51.830;5.684;2022-11-21T08:50:11;6.00;89.50
42755;DHT22;28407;51.830;5.684;2022-11-21T08:52:12;6.00;89.40
42755;DHT22;28407;51.830;5.684;2022-11-21T08:54:14;6.00;89.50
42755;DHT22;28407;51.830;5.684;2022-11-21T08:56:15;6.00;89.50
42755;DHT22;28407;51.830;5.684;2022-11-21T08:58:15;6.00;89.50
42755;DHT22;28407;51.830;5.684;2022-11-21T09:00:16;6.00;90.00
42755;DHT22;28407;51.830;5.684;2022-11-21T09:02:16;6.00;89.60
42755;DHT22;28407;51.830;5.684;2022-11-21T09:04:17;6.00;89.60
42755;DHT22;28407;51.830;5.684;2022-11-21T09:06:18;6.00;89.60
42755;DHT22;28407;51.830;5.684;2022-11-21T09:08:18;6.10;89.70
42755;DHT22;28407;51.830;5.684;2022-11-21T09:10:19;6.10;89.80
42755;DHT22;28407;51.830;5.684;2022-11-21T09:12:19;6.20;89.70
42755;DHT22;28407;51.830;5.684;2022-11-21T09:14:22;6.20;89.80
42755;DHT22;28407;51.830;5.684;2022-11-21T09:16:42;6.20;89.70
42755;DHT22;28407;51.830;5.684;2022-11-21T09:19:01;6.30;89.60
42755;DHT22;28407;51.830;5.684;2022-11-21T09:21:02;6.30;89.50
42755;DHT22;28407;51.830;5.684;2022-11-21T09:23:04;6.30;89.40
42755;DHT22;28407;51.830;5.684;2022-11-21T09:25:05;6.40;89.40
42755;DHT22;28407;51.830;5.684;2022-11-21T09:27:06;6.40;89.40
42755;DHT22;28407;51.830;5.684;2022-11-21T09:29:06;6.40;89.40
42755;DHT22;28407;51.830;5.684;2022-11-21T09:31:10;6.50;89.50
42755;DHT22;28407;51.830;5.684;2022-11-21T09:33:13;6.50;89.40
42755;DHT22;28407;51.830;5.684;2022-11-21T09:35:13;6.50;89.40
42755;DHT22;28407;51.830;5.684;2022-11-21T09:37:14;6.50;89.40
42755;DHT22;28407;51.830;5.684;2022-11-21T09:39:15;6.60;89.50
42755;DHT22;28407;51.830;5.684;2022-11-21T09:46:32;6.60;89.60
42755;DHT22;28407;51.830;5.684;2022-11-21T09:49:03;6.50;89.50
42755;DHT22;28407;51.830;5.684;2022-11-21T09:51:10;6.60;89.70
42755;DHT22;28407;51.830;5.684;2022-11-21T09:53:27;6.60;89.60
42755;DHT22;28407;51.830;5.684;2022-11-21T09:56:00;6.60;89.70
42755;DHT22;28407;51.830;5.684;2022-11-21T09:58:08;6.60;89.70
42755;DHT22;28407;51.830;5.684;2022-11-21T10:00:18;6.60;89.70
42755;DHT22;28407;51.830;5.684;2022-11-21T10:02:20;6.60;89.80
42755;DHT22;28407;51.830;5.684;2022-11-21T10:04:22;6.60;89.80
42755;DHT22;28407;51.830;5.684;2022-11-21T10:06:23;6.60;89.90
42755;DHT22;28407;51.830;5.684;2022-11-21T10:10:52;6.70;90.00
42755;DHT22;28407;51.830;5.684;2022-11-21T10:17:21;6.80;90.00
42755;DHT22;28407;51.830;5.684;2022-11-21T10:19:54;6.80;89.90
42755;DHT22;28407;51.830;5.684;2022-11-21T10:22:24;6.80;89.90
42755;DHT22;28407;51.830;5.684;2022-11-21T10:24:37;6.80;89.90
42755;DHT22;28407;51.830;5.684;2022-11-21T10:26:51;6.90;89.90
42755;DHT22;28407;51.830;5.684;2022-11-21T10:29:03;6.90;89.80
42755;DHT22;28407;51.830;5.684;2022-11-21T10:31:11;6.90;89.80
42755;DHT22;28407;51.830;5.684;2022-11-21T10:33:17;7.00;89.80
42755;DHT22;28407;51.830;5.684;2022-11-21T10:35:23;7.00;89.90
42755;DHT22;28407;51.830;5.684;2022-11-21T10:37:38;7.00;90.00
42755;DHT22;28407;51.830;5.684;2022-11-21T10:39:45;7.00;90.00
42755;DHT22;28407;51.830;5.684;2022-11-21T10:44:27;7.10;90.00
42755;DHT22;28407;51.830;5.684;2022-11-21T10:47:00;7.10;90.00
42755;DHT22;28407;51.830;5.684;2022-11-21T10:49:02;7.10;90.00
42755;DHT22;28407;51.830;5.684;2022-11-21T10:53:23;7.20;90.00
42755;DHT22;28407;51.830;5.684;2022-11-21T10:55:59;7.20;90.00
42755;DHT22;28407;51.830;5.684;2022-11-21T10:58:16;7.30;90.00
42755;DHT22;28407;51.830;5.684;2022-11-21T11:00:25;7.30;90.00
42755;DHT22;28407;51.830;5.684;2022-11-21T11:02:26;7.40;89.90
42755;DHT22;28407;51.830;5.684;2022-11-21T11:04:29;7.40;89.90
42755;DHT22;28407;51.830;5.684;2022-11-21T11:06:30;7.40;89.90
42755;DHT22;28407;51.830;5.684;2022-11-21T11:08:49;7.50;90.00
42755;DHT22;28407;51.830;5.684;2022-11-21T11:11:05;7.50;90.00
42755;DHT22;28407;51.830;5.684;2022-11-21T11:13:18;7.60;90.00
42755;DHT22;28407;51.830;5.684;2022-11-21T11:15:36;7.60;89.90
42755;DHT22;28407;51.830;5.684;2022-11-21T11:17:38;7.60;89.90
42755;DHT22;28407;51.830;5.684;2022-11-21T11:19:39;7.60;90.00
42755;DHT22;28407;51.830;5.684;2022-11-21T11:21:58;7.60;90.00
42755;DHT22;28407;51.830;5.684;2022-11-21T11:26:29;7.60;90.00
42755;DHT22;28407;51.830;5.684;2022-11-21T11:28:35;7.70;90.10
42755;DHT22;28407;51.830;5.684;2022-11-21T11:30:36;7.70;90.00
42755;DHT22;28407;51.830;5.684;2022-11-21T11:32:40;7.70;90.00
42755;DHT22;28407;51.830;5.684;2022-11-21T11:36:55;7.70;90.00
42755;DHT22;28407;51.830;5.684;2022-11-21T11:39:09;7.70;90.10
42755;DHT22;28407;51.830;5.684;2022-11-21T11:41:52;7.70;90.10
42755;DHT22;28407;51.830;5.684;2022-11-21T11:44:16;7.70;90.10
42755;DHT22;28407;51.830;5.684;2022-11-21T11:47:05;7.80;90.10
42755;DHT22;28407;51.830;5.684;2022-11-21T11:49:34;7.70;90.00
42755;DHT22;28407;51.830;5.684;2022-11-21T11:51:59;7.80;90.00
42755;DHT22;28407;51.830;5.684;2022-11-21T11:54:13;7.80;90.00
42755;DHT22;28407;51.830;5.684;2022-11-21T11:56:24;7.90;90.00
42755;DHT22;28407;51.830;5.684;2022-11-21T11:58:45;7.90;90.30
42755;DHT22;28407;51.830;5.684;2022-11-21T12:02:59;8.10;89.90
42755;DHT22;28407;51.830;5.684;2022-11-21T12:05:08;8.10;90.20
42755;DHT22;28407;51.830;5.684;2022-11-21T12:07:36;8.10;89.80
42755;DHT22;28407;51.830;5.684;2022-11-21T12:09:47;8.20;89.90
42755;DHT22;28407;51.830;5.684;2022-11-21T12:12:25;8.20;89.80
42755;DHT22;28407;51.830;5.684;2022-11-21T12:17:16;8.30;89.70
42755;DHT22;28407;51.830;5.684;2022-11-21T12:19:18;8.40;89.50
42755;DHT22;28407;51.830;5.684;2022-11-21T12:21:19;8.40;89.50
42755;DHT22;28407;51.830;5.684;2022-11-21T12:23:44;8.40;89.50
42755;DHT22;28407;51.830;5.684;2022-11-21T12:28:29;8.40;89.50
42755;DHT22;28407;51.830;5.684;2022-11-21T12:33:21;8.40;89.50
42755;DHT22;28407;51.830;5.684;2022-11-21T12:37:47;8.40;89.50
42755;DHT22;28407;51.830;5.684;2022-11-21T12:49:29;8.40;89.50
42755;DHT22;28407;51.830;5.684;2022-11-21T12:52:13;8.40;89.60
42755;DHT22;28407;51.830;5.684;2022-11-21T12:54:49;8.40;89.60
42755;DHT22;28407;51.830;5.684;2022-11-21T12:57:01;8.40;89.60
42755;DHT22;28407;51.830;5.684;2022-11-21T12:59:04;8.30;89.50
42755;DHT22;28407;51.830;5.684;2022-11-21T13:05:49;8.30;89.60
42755;DHT22;28407;51.830;5.684;2022-11-21T13:08:05;8.30;89.60
42755;DHT22;28407;51.830;5.684;2022-11-21T13:10:11;8.30;89.60
42755;DHT22;28407;51.830;5.684;2022-11-21T13:16:49;8.30;89.60
42755;DHT22;28407;51.830;5.684;2022-11-21T13:18:52;8.30;89.60
42755;DHT22;28407;51.830;5.684;2022-11-21T13:20:53;8.30;89.50
42755;DHT22;28407;51.830;5.684;2022-11-21T13:22:59;8.30;89.50
42755;DHT22;28407;51.830;5.684;2022-11-21T13:27:27;8.30;89.50
42755;DHT22;28407;51.830;5.684;2022-11-21T13:29:28;8.40;89.60
42755;DHT22;28407;51.830;5.684;2022-11-21T13:31:30;8.40;89.60
42755;DHT22;28407;51.830;5.684;2022-11-21T13:35:54;8.40;89.60
42755;DHT22;28407;51.830;5.684;2022-11-21T13:38:08;8.40;89.60
42755;DHT22;28407;51.830;5.684;2022-11-21T13:45:38;8.40;89.50
42755;DHT22;28407;51.830;5.684;2022-11-21T13:47:58;8.40;89.50
42755;DHT22;28407;51.830;5.684;2022-11-21T13:52:42;8.40;89.40
42755;DHT22;28407;51.830;5.684;2022-11-21T14:06:11;8.30;89.50
42755;DHT22;28407;51.830;5.684;2022-11-21T14:08:22;8.30;89.50
42755;DHT22;28407;51.830;5.684;2022-11-21T14:12:35;8.30;89.50
42755;DHT22;28407;51.830;5.684;2022-11-21T14:15:14;8.30;89.60
42755;DHT22;28407;51.830;5.684;2022-11-21T14:19:45;8.30;89.60
42755;DHT22;28407;51.830;5.684;2022-11-21T14:21:46;8.30;89.70
42755;DHT22;28407;51.830;5.684;2022-11-21T14:23:48;8.20;89.70
42755;DHT22;28407;51.830;5.684;2022-11-21T14:25:58;8.30;89.80
42755;DHT22;28407;51.830;5.684;2022-11-21T14:28:00;8.20;89.80
42755;DHT22;28407;51.830;5.684;2022-11-21T14:30:03;8.20;89.80
42755;DHT22;28407;51.830;5.684;2022-11-21T14:32:04;8.20;89.80
42755;DHT22;28407;51.830;5.684;2022-11-21T14:34:08;8.20;89.90
42755;DHT22;28407;51.830;5.684;2022-11-21T14:36:17;8.20;89.80
42755;DHT22;28407;51.830;5.684;2022-11-21T14:38:19;8.20;89.90
42755;DHT22;28407;51.830;5.684;2022-11-21T14:40:22;8.10;89.80
42755;DHT22;28407;51.830;5.684;2022-11-21T14:42:23;8.20;89.90